Terminal Aerodrome Forecast
Issued by NWS

Home | Current Version | Previous Version | Text Only | Print | Product List | Glossary On
Versions: 1 2 3 4 5 6 7 8 9 10 11 12 13
000
FTUS45 KABQ 021846 AAA
TAFTCC
TAF AMD
KTCC 021846Z 0219/0318 06011KT P6SM VCSH BKN035
     FM022300 05013KT P6SM VCSH OVC020
     FM030300 04013KT 2SM -SN OVC009 PROB30 0305/0311 3/4SM -SN BR
      OVC007=

USA.gov is the U.S. government's official web portal to all federal, state and local government web resources and services.